Axtell, Utah
Current Conditions -  °F | °C
As of 9:55 PM on Friday 24 Oct 2014 (Local Time) from KDTA Reporting Station
Clear Clear  
Wind Chill: 62°   Ceiling: Unl
Heat Index: 62°   Visibility: 10mi
Dew Point: 26°   Wind: 12mph
Humidity: 25%   Direction: 170°S
Pressure: 30.14"   Gusts: NA
Location:  39.06°N, 111.82°W
Report Text: KDTA 250355Z AUTO 17010KT 10SM CLR 17/M03 A3014 RMK AO1 T01681033
Loading
Personal Weather Stations






























Interactive Weather Map
Tropical Storm Tracking
New forecast layout! Learn more

10-Day Weather Forecast

Advertisements
Track Severe Weather on mobile